sensor_id;sensor_type;location;lat;lon;timestamp;temperature;humidity
22418;DHT22;11376;50.932;4.442;2023-06-10T00:02:07;22.20;99.90
22418;DHT22;11376;50.932;4.442;2023-06-10T00:04:33;22.00;99.90
22418;DHT22;11376;50.932;4.442;2023-06-10T00:06:59;22.10;99.90
22418;DHT22;11376;50.932;4.442;2023-06-10T00:09:25;22.00;99.90
22418;DHT22;11376;50.932;4.442;2023-06-10T00:11:52;22.00;99.90
22418;DHT22;11376;50.932;4.442;2023-06-10T00:14:19;21.90;99.90
22418;DHT22;11376;50.932;4.442;2023-06-10T00:16:45;21.80;99.90
22418;DHT22;11376;50.932;4.442;2023-06-10T00:19:11;21.70;99.90
22418;DHT22;11376;50.932;4.442;2023-06-10T00:21:39;21.60;99.90
22418;DHT22;11376;50.932;4.442;2023-06-10T00:24:06;21.60;99.90
22418;DHT22;11376;50.932;4.442;2023-06-10T00:26:33;21.60;99.90
22418;DHT22;11376;50.932;4.442;2023-06-10T00:28:59;21.50;99.90
22418;DHT22;11376;50.932;4.442;2023-06-10T00:31:25;21.50;99.90
22418;DHT22;11376;50.932;4.442;2023-06-10T00:33:52;21.40;99.90
22418;DHT22;11376;50.932;4.442;2023-06-10T00:36:17;21.30;99.90
22418;DHT22;11376;50.932;4.442;2023-06-10T00:38:43;21.30;99.90
22418;DHT22;11376;50.932;4.442;2023-06-10T00:41:09;21.20;99.90
22418;DHT22;11376;50.932;4.442;2023-06-10T00:43:35;21.20;99.90
22418;DHT22;11376;50.932;4.442;2023-06-10T00:46:00;21.20;99.90
22418;DHT22;11376;50.932;4.442;2023-06-10T00:48:27;21.10;99.90
22418;DHT22;11376;50.932;4.442;2023-06-10T00:50:53;21.10;99.90
22418;DHT22;11376;50.932;4.442;2023-06-10T00:53:19;21.00;99.90
22418;DHT22;11376;50.932;4.442;2023-06-10T00:55:46;21.00;99.90
22418;DHT22;11376;50.932;4.442;2023-06-10T00:58:12;21.00;99.90
22418;DHT22;11376;50.932;4.442;2023-06-10T01:00:38;20.90;99.90
22418;DHT22;11376;50.932;4.442;2023-06-10T01:03:04;20.90;99.90
22418;DHT22;11376;50.932;4.442;2023-06-10T01:05:36;20.90;99.90
22418;DHT22;11376;50.932;4.442;2023-06-10T01:08:35;20.80;99.90
22418;DHT22;11376;50.932;4.442;2023-06-10T01:11:08;20.70;99.90
22418;DHT22;11376;50.932;4.442;2023-06-10T01:13:40;20.60;99.90
22418;DHT22;11376;50.932;4.442;2023-06-10T01:16:07;20.50;99.90
22418;DHT22;11376;50.932;4.442;2023-06-10T01:18:33;20.50;99.90
22418;DHT22;11376;50.932;4.442;2023-06-10T01:20:58;20.40;99.90
22418;DHT22;11376;50.932;4.442;2023-06-10T01:23:24;20.30;99.90
22418;DHT22;11376;50.932;4.442;2023-06-10T01:25:59;20.30;99.90
22418;DHT22;11376;50.932;4.442;2023-06-10T01:28:33;20.40;99.90
22418;DHT22;11376;50.932;4.442;2023-06-10T01:31:17;20.50;99.90
22418;DHT22;11376;50.932;4.442;2023-06-10T01:33:51;20.50;99.90
22418;DHT22;11376;50.932;4.442;2023-06-10T01:36:18;20.50;99.90
22418;DHT22;11376;50.932;4.442;2023-06-10T01:38:46;20.50;99.90
22418;DHT22;11376;50.932;4.442;2023-06-10T01:41:14;20.40;99.90
22418;DHT22;11376;50.932;4.442;2023-06-10T01:43:43;20.40;99.90
22418;DHT22;11376;50.932;4.442;2023-06-10T01:46:09;20.30;99.90
22418;DHT22;11376;50.932;4.442;2023-06-10T01:48:37;20.30;99.90
22418;DHT22;11376;50.932;4.442;2023-06-10T01:51:04;20.30;99.90
22418;DHT22;11376;50.932;4.442;2023-06-10T01:53:30;20.30;99.90
22418;DHT22;11376;50.932;4.442;2023-06-10T01:55:55;20.30;99.90
22418;DHT22;11376;50.932;4.442;2023-06-10T01:58:21;20.30;99.90
22418;DHT22;11376;50.932;4.442;2023-06-10T02:00:47;20.40;99.90
22418;DHT22;11376;50.932;4.442;2023-06-10T02:03:13;20.40;99.90
22418;DHT22;11376;50.932;4.442;2023-06-10T02:05:39;20.30;99.90
22418;DHT22;11376;50.932;4.442;2023-06-10T02:08:05;20.30;99.90
22418;DHT22;11376;50.932;4.442;2023-06-10T02:10:30;20.20;99.90
22418;DHT22;11376;50.932;4.442;2023-06-10T02:12:56;20.20;99.90
22418;DHT22;11376;50.932;4.442;2023-06-10T02:15:22;20.20;99.90
22418;DHT22;11376;50.932;4.442;2023-06-10T02:17:47;20.00;99.90
22418;DHT22;11376;50.932;4.442;2023-06-10T02:20:16;20.10;99.90
22418;DHT22;11376;50.932;4.442;2023-06-10T02:22:41;20.10;99.90
22418;DHT22;11376;50.932;4.442;2023-06-10T02:25:08;20.20;99.90
22418;DHT22;11376;50.932;4.442;2023-06-10T02:27:34;20.00;99.90
22418;DHT22;11376;50.932;4.442;2023-06-10T02:29:59;20.10;99.90
22418;DHT22;11376;50.932;4.442;2023-06-10T02:32:25;20.00;99.90
22418;DHT22;11376;50.932;4.442;2023-06-10T02:34:51;19.90;99.90
22418;DHT22;11376;50.932;4.442;2023-06-10T02:37:16;19.80;99.90
22418;DHT22;11376;50.932;4.442;2023-06-10T02:39:42;19.60;99.90
22418;DHT22;11376;50.932;4.442;2023-06-10T02:42:08;19.50;99.90
22418;DHT22;11376;50.932;4.442;2023-06-10T02:44:34;19.50;99.90
22418;DHT22;11376;50.932;4.442;2023-06-10T02:46:59;19.40;99.90
22418;DHT22;11376;50.932;4.442;2023-06-10T02:49:25;19.50;99.90
22418;DHT22;11376;50.932;4.442;2023-06-10T02:51:53;19.40;99.90
22418;DHT22;11376;50.932;4.442;2023-06-10T02:54:20;19.40;99.90
22418;DHT22;11376;50.932;4.442;2023-06-10T02:56:46;19.50;99.90
22418;DHT22;11376;50.932;4.442;2023-06-10T02:59:13;19.50;99.90
22418;DHT22;11376;50.932;4.442;2023-06-10T03:01:39;19.50;99.90
22418;DHT22;11376;50.932;4.442;2023-06-10T03:04:06;19.40;99.90
22418;DHT22;11376;50.932;4.442;2023-06-10T03:06:32;19.40;99.90
22418;DHT22;11376;50.932;4.442;2023-06-10T03:09:01;19.30;99.90
22418;DHT22;11376;50.932;4.442;2023-06-10T03:11:29;19.40;99.90
22418;DHT22;11376;50.932;4.442;2023-06-10T03:13:56;19.50;99.90
22418;DHT22;11376;50.932;4.442;2023-06-10T03:16:22;19.40;99.90
22418;DHT22;11376;50.932;4.442;2023-06-10T03:18:50;19.20;99.90
22418;DHT22;11376;50.932;4.442;2023-06-10T03:21:16;19.10;99.90
22418;DHT22;11376;50.932;4.442;2023-06-10T03:23:42;19.20;99.90
22418;DHT22;11376;50.932;4.442;2023-06-10T03:26:08;19.30;99.90
22418;DHT22;11376;50.932;4.442;2023-06-10T03:28:35;19.30;99.90
22418;DHT22;11376;50.932;4.442;2023-06-10T03:31:01;19.30;99.90
22418;DHT22;11376;50.932;4.442;2023-06-10T03:33:27;19.20;99.90
22418;DHT22;11376;50.932;4.442;2023-06-10T03:35:52;19.00;99.90
22418;DHT22;11376;50.932;4.442;2023-06-10T03:38:18;19.10;99.90
22418;DHT22;11376;50.932;4.442;2023-06-10T03:40:44;19.10;99.90
22418;DHT22;11376;50.932;4.442;2023-06-10T03:43:10;19.00;99.90
22418;DHT22;11376;50.932;4.442;2023-06-10T03:45:36;19.00;99.90
22418;DHT22;11376;50.932;4.442;2023-06-10T03:48:01;18.90;99.90
22418;DHT22;11376;50.932;4.442;2023-06-10T03:50:28;18.90;99.90
22418;DHT22;11376;50.932;4.442;2023-06-10T03:52:54;18.80;99.90
22418;DHT22;11376;50.932;4.442;2023-06-10T03:55:20;18.80;99.90
22418;DHT22;11376;50.932;4.442;2023-06-10T03:57:48;18.80;99.90
22418;DHT22;11376;50.932;4.442;2023-06-10T04:00:15;18.70;99.90
22418;DHT22;11376;50.932;4.442;2023-06-10T04:02:41;18.70;99.90
22418;DHT22;11376;50.932;4.442;2023-06-10T04:05:14;18.70;99.90
22418;DHT22;11376;50.932;4.442;2023-06-10T04:07:40;18.60;99.90
22418;DHT22;11376;50.932;4.442;2023-06-10T04:10:08;18.60;99.90
22418;DHT22;11376;50.932;4.442;2023-06-10T04:12:34;18.60;99.90
22418;DHT22;11376;50.932;4.442;2023-06-10T04:15:00;18.60;99.90
22418;DHT22;11376;50.932;4.442;2023-06-10T04:17:26;18.60;99.90
22418;DHT22;11376;50.932;4.442;2023-06-10T04:19:52;18.70;99.90
22418;DHT22;11376;50.932;4.442;2023-06-10T04:22:18;18.70;99.90
22418;DHT22;11376;50.932;4.442;2023-06-10T04:24:44;18.80;99.90
22418;DHT22;11376;50.932;4.442;2023-06-10T04:27:09;18.90;99.90
22418;DHT22;11376;50.932;4.442;2023-06-10T04:29:35;18.80;99.90
22418;DHT22;11376;50.932;4.442;2023-06-10T04:32:01;18.80;99.90
22418;DHT22;11376;50.932;4.442;2023-06-10T04:34:27;18.90;99.90
22418;DHT22;11376;50.932;4.442;2023-06-10T04:36:53;18.90;99.90
22418;DHT22;11376;50.932;4.442;2023-06-10T04:39:19;18.80;99.90
22418;DHT22;11376;50.932;4.442;2023-06-10T04:41:45;18.90;99.90
22418;DHT22;11376;50.932;4.442;2023-06-10T04:44:11;19.00;99.90
22418;DHT22;11376;50.932;4.442;2023-06-10T04:46:37;19.20;99.90
22418;DHT22;11376;50.932;4.442;2023-06-10T04:49:02;19.20;99.90
22418;DHT22;11376;50.932;4.442;2023-06-10T04:51:28;19.30;99.90
22418;DHT22;11376;50.932;4.442;2023-06-10T04:53:53;19.30;99.90
22418;DHT22;11376;50.932;4.442;2023-06-10T04:56:19;19.60;99.90
22418;DHT22;11376;50.932;4.442;2023-06-10T04:58:45;19.60;99.90
22418;DHT22;11376;50.932;4.442;2023-06-10T05:01:11;19.60;99.90
22418;DHT22;11376;50.932;4.442;2023-06-10T05:03:36;19.70;99.90
22418;DHT22;11376;50.932;4.442;2023-06-10T05:06:02;19.70;99.90
22418;DHT22;11376;50.932;4.442;2023-06-10T05:08:27;19.90;99.90
22418;DHT22;11376;50.932;4.442;2023-06-10T05:10:53;19.90;99.90
22418;DHT22;11376;50.932;4.442;2023-06-10T05:13:18;20.10;99.90
22418;DHT22;11376;50.932;4.442;2023-06-10T05:15:44;20.10;99.90
22418;DHT22;11376;50.932;4.442;2023-06-10T05:18:11;20.30;99.90
22418;DHT22;11376;50.932;4.442;2023-06-10T05:20:38;20.60;99.90
22418;DHT22;11376;50.932;4.442;2023-06-10T05:23:03;20.80;99.90
22418;DHT22;11376;50.932;4.442;2023-06-10T05:25:32;20.90;99.90
22418;DHT22;11376;50.932;4.442;2023-06-10T05:27:58;21.00;99.90
22418;DHT22;11376;50.932;4.442;2023-06-10T05:30:24;21.00;99.90
22418;DHT22;11376;50.932;4.442;2023-06-10T05:32:50;21.10;99.90
22418;DHT22;11376;50.932;4.442;2023-06-10T05:35:16;21.20;99.90
22418;DHT22;11376;50.932;4.442;2023-06-10T05:37:42;21.20;99.90
22418;DHT22;11376;50.932;4.442;2023-06-10T05:40:08;21.30;99.90
22418;DHT22;11376;50.932;4.442;2023-06-10T05:42:33;21.50;99.90
22418;DHT22;11376;50.932;4.442;2023-06-10T05:44:59;21.70;99.90
22418;DHT22;11376;50.932;4.442;2023-06-10T05:47:25;21.80;99.90
22418;DHT22;11376;50.932;4.442;2023-06-10T05:49:50;21.90;99.90
22418;DHT22;11376;50.932;4.442;2023-06-10T05:52:17;22.00;99.90
22418;DHT22;11376;50.932;4.442;2023-06-10T05:54:43;22.00;99.90
22418;DHT22;11376;50.932;4.442;2023-06-10T05:57:09;22.20;99.90
22418;DHT22;11376;50.932;4.442;2023-06-10T05:59:36;22.30;99.90
22418;DHT22;11376;50.932;4.442;2023-06-10T06:02:01;22.30;99.90
22418;DHT22;11376;50.932;4.442;2023-06-10T06:04:27;22.10;99.90
22418;DHT22;11376;50.932;4.442;2023-06-10T06:06:53;22.20;99.90
22418;DHT22;11376;50.932;4.442;2023-06-10T06:09:18;22.60;99.90
22418;DHT22;11376;50.932;4.442;2023-06-10T06:11:44;22.50;99.90
22418;DHT22;11376;50.932;4.442;2023-06-10T06:14:09;22.80;99.90
22418;DHT22;11376;50.932;4.442;2023-06-10T06:16:35;22.90;99.90
22418;DHT22;11376;50.932;4.442;2023-06-10T06:19:01;22.80;99.90
22418;DHT22;11376;50.932;4.442;2023-06-10T06:21:26;22.80;99.90
22418;DHT22;11376;50.932;4.442;2023-06-10T06:23:52;22.70;99.90
22418;DHT22;11376;50.932;4.442;2023-06-10T06:26:17;22.70;99.90
22418;DHT22;11376;50.932;4.442;2023-06-10T06:28:43;22.70;99.90
22418;DHT22;11376;50.932;4.442;2023-06-10T06:31:08;22.60;99.90
22418;DHT22;11376;50.932;4.442;2023-06-10T06:33:34;22.60;99.90
22418;DHT22;11376;50.932;4.442;2023-06-10T06:35:59;22.90;99.90
22418;DHT22;11376;50.932;4.442;2023-06-10T06:38:28;22.80;99.90
22418;DHT22;11376;50.932;4.442;2023-06-10T06:40:53;22.90;99.90
22418;DHT22;11376;50.932;4.442;2023-06-10T06:43:19;23.00;99.90
22418;DHT22;11376;50.932;4.442;2023-06-10T06:45:45;22.90;99.90
22418;DHT22;11376;50.932;4.442;2023-06-10T06:48:11;23.10;99.90
22418;DHT22;11376;50.932;4.442;2023-06-10T06:50:37;23.20;99.90
22418;DHT22;11376;50.932;4.442;2023-06-10T06:53:04;23.20;99.90
22418;DHT22;11376;50.932;4.442;2023-06-10T06:55:30;23.10;99.90
22418;DHT22;11376;50.932;4.442;2023-06-10T06:57:55;23.20;99.90
22418;DHT22;11376;50.932;4.442;2023-06-10T07:00:21;23.40;99.90
22418;DHT22;11376;50.932;4.442;2023-06-10T07:02:48;23.50;99.90
22418;DHT22;11376;50.932;4.442;2023-06-10T07:05:14;23.90;99.90
22418;DHT22;11376;50.932;4.442;2023-06-10T07:07:40;23.80;99.90
22418;DHT22;11376;50.932;4.442;2023-06-10T07:10:06;23.90;99.90
22418;DHT22;11376;50.932;4.442;2023-06-10T07:12:31;23.80;99.90
22418;DHT22;11376;50.932;4.442;2023-06-10T07:14:57;24.10;99.90
22418;DHT22;11376;50.932;4.442;2023-06-10T07:17:23;24.00;99.90
22418;DHT22;11376;50.932;4.442;2023-06-10T07:19:49;24.10;99.90
22418;DHT22;11376;50.932;4.442;2023-06-10T07:22:14;24.30;99.90
22418;DHT22;11376;50.932;4.442;2023-06-10T07:24:40;24.50;99.90
22418;DHT22;11376;50.932;4.442;2023-06-10T07:27:06;24.60;99.90
22418;DHT22;11376;50.932;4.442;2023-06-10T07:29:32;24.70;99.90
22418;DHT22;11376;50.932;4.442;2023-06-10T07:31:58;24.70;99.90
22418;DHT22;11376;50.932;4.442;2023-06-10T07:34:23;24.70;99.90
22418;DHT22;11376;50.932;4.442;2023-06-10T07:36:49;24.70;99.90
22418;DHT22;11376;50.932;4.442;2023-06-10T07:39:15;25.00;99.90
22418;DHT22;11376;50.932;4.442;2023-06-10T07:41:40;25.10;99.90
22418;DHT22;11376;50.932;4.442;2023-06-10T07:44:06;25.40;99.90
22418;DHT22;11376;50.932;4.442;2023-06-10T07:46:32;25.40;99.90
22418;DHT22;11376;50.932;4.442;2023-06-10T07:48:58;25.30;99.90
22418;DHT22;11376;50.932;4.442;2023-06-10T07:51:23;25.30;99.90
22418;DHT22;11376;50.932;4.442;2023-06-10T07:53:49;25.50;99.90
22418;DHT22;11376;50.932;4.442;2023-06-10T07:56:15;25.70;99.90
22418;DHT22;11376;50.932;4.442;2023-06-10T07:58:41;25.70;99.90
22418;DHT22;11376;50.932;4.442;2023-06-10T08:01:06;25.80;99.90
22418;DHT22;11376;50.932;4.442;2023-06-10T08:03:33;25.70;99.90
22418;DHT22;11376;50.932;4.442;2023-06-10T08:05:58;25.80;99.90
22418;DHT22;11376;50.932;4.442;2023-06-10T08:08:24;26.00;99.90
22418;DHT22;11376;50.932;4.442;2023-06-10T08:10:49;26.10;99.90
22418;DHT22;11376;50.932;4.442;2023-06-10T08:13:15;26.30;99.90
22418;DHT22;11376;50.932;4.442;2023-06-10T08:15:41;26.40;99.90
22418;DHT22;11376;50.932;4.442;2023-06-10T08:18:06;26.30;99.90
22418;DHT22;11376;50.932;4.442;2023-06-10T08:20:32;26.30;99.90
22418;DHT22;11376;50.932;4.442;2023-06-10T08:22:58;26.60;99.90
22418;DHT22;11376;50.932;4.442;2023-06-10T08:25:23;26.80;99.90
22418;DHT22;11376;50.932;4.442;2023-06-10T08:27:49;27.10;99.90
22418;DHT22;11376;50.932;4.442;2023-06-10T08:30:16;27.00;99.90
22418;DHT22;11376;50.932;4.442;2023-06-10T08:32:43;27.30;99.90
22418;DHT22;11376;50.932;4.442;2023-06-10T08:35:09;27.50;99.90
22418;DHT22;11376;50.932;4.442;2023-06-10T08:37:35;27.50;99.90
22418;DHT22;11376;50.932;4.442;2023-06-10T08:40:00;27.30;99.90
22418;DHT22;11376;50.932;4.442;2023-06-10T08:42:33;27.40;99.90
22418;DHT22;11376;50.932;4.442;2023-06-10T08:45:01;27.50;99.90
22418;DHT22;11376;50.932;4.442;2023-06-10T08:47:29;27.80;99.90
22418;DHT22;11376;50.932;4.442;2023-06-10T08:49:57;28.10;99.90
22418;DHT22;11376;50.932;4.442;2023-06-10T08:52:34;28.10;99.90
22418;DHT22;11376;50.932;4.442;2023-06-10T08:55:04;28.10;99.90
22418;DHT22;11376;50.932;4.442;2023-06-10T08:57:33;28.10;99.90
22418;DHT22;11376;50.932;4.442;2023-06-10T08:59:59;28.10;99.90
22418;DHT22;11376;50.932;4.442;2023-06-10T09:02:25;28.30;99.90
22418;DHT22;11376;50.932;4.442;2023-06-10T09:04:52;28.30;99.90
22418;DHT22;11376;50.932;4.442;2023-06-10T09:07:19;28.10;99.90
22418;DHT22;11376;50.932;4.442;2023-06-10T09:09:45;28.40;99.90
22418;DHT22;11376;50.932;4.442;2023-06-10T09:12:14;28.30;99.90
22418;DHT22;11376;50.932;4.442;2023-06-10T09:14:40;28.40;99.90
22418;DHT22;11376;50.932;4.442;2023-06-10T09:17:06;28.70;99.90
22418;DHT22;11376;50.932;4.442;2023-06-10T09:19:32;29.20;99.90
22418;DHT22;11376;50.932;4.442;2023-06-10T09:21:58;29.30;99.90
22418;DHT22;11376;50.932;4.442;2023-06-10T09:24:24;29.10;99.90
22418;DHT22;11376;50.932;4.442;2023-06-10T09:26:52;29.10;99.90
22418;DHT22;11376;50.932;4.442;2023-06-10T09:29:27;29.40;99.40
22418;DHT22;11376;50.932;4.442;2023-06-10T09:31:52;29.30;98.90
22418;DHT22;11376;50.932;4.442;2023-06-10T09:34:18;29.10;99.50
22418;DHT22;11376;50.932;4.442;2023-06-10T09:36:44;29.40;97.70
22418;DHT22;11376;50.932;4.442;2023-06-10T09:39:15;29.60;97.30
22418;DHT22;11376;50.932;4.442;2023-06-10T09:41:42;29.70;96.70
22418;DHT22;11376;50.932;4.442;2023-06-10T09:44:18;29.70;96.20
22418;DHT22;11376;50.932;4.442;2023-06-10T09:46:50;29.80;95.70
22418;DHT22;11376;50.932;4.442;2023-06-10T09:49:17;29.80;95.30
22418;DHT22;11376;50.932;4.442;2023-06-10T09:51:49;29.80;94.50
22418;DHT22;11376;50.932;4.442;2023-06-10T09:54:16;29.80;93.90
22418;DHT22;11376;50.932;4.442;2023-06-10T09:56:42;29.70;94.30
22418;DHT22;11376;50.932;4.442;2023-06-10T09:59:08;29.90;94.80
22418;DHT22;11376;50.932;4.442;2023-06-10T10:01:34;30.20;94.30
22418;DHT22;11376;50.932;4.442;2023-06-10T10:04:00;30.40;93.70
22418;DHT22;11376;50.932;4.442;2023-06-10T10:06:29;30.50;93.80
22418;DHT22;11376;50.932;4.442;2023-06-10T10:08:56;30.70;93.10
22418;DHT22;11376;50.932;4.442;2023-06-10T10:11:22;30.90;92.90
22418;DHT22;11376;50.932;4.442;2023-06-10T10:13:52;31.00;91.80
22418;DHT22;11376;50.932;4.442;2023-06-10T10:16:26;31.20;91.20
22418;DHT22;11376;50.932;4.442;2023-06-10T10:19:04;31.10;90.90
22418;DHT22;11376;50.932;4.442;2023-06-10T10:21:37;31.20;90.60
22418;DHT22;11376;50.932;4.442;2023-06-10T10:26:34;31.30;90.40
22418;DHT22;11376;50.932;4.442;2023-06-10T10:29:24;31.10;86.80
22418;DHT22;11376;50.932;4.442;2023-06-10T10:31:51;31.30;88.10
22418;DHT22;11376;50.932;4.442;2023-06-10T10:34:43;31.40;86.90
22418;DHT22;11376;50.932;4.442;2023-06-10T10:37:10;31.70;84.90
22418;DHT22;11376;50.932;4.442;2023-06-10T10:39:36;31.60;83.80
22418;DHT22;11376;50.932;4.442;2023-06-10T10:42:03;31.30;85.70
22418;DHT22;11376;50.932;4.442;2023-06-10T10:44:30;31.40;83.70
22418;DHT22;11376;50.932;4.442;2023-06-10T10:46:56;31.40;82.50
22418;DHT22;11376;50.932;4.442;2023-06-10T10:49:24;31.20;81.40
22418;DHT22;11376;50.932;4.442;2023-06-10T10:51:57;31.20;79.80
22418;DHT22;11376;50.932;4.442;2023-06-10T10:54:34;31.40;78.10
22418;DHT22;11376;50.932;4.442;2023-06-10T10:59:59;31.60;77.40
22418;DHT22;11376;50.932;4.442;2023-06-10T11:02:41;32.20;76.50
22418;DHT22;11376;50.932;4.442;2023-06-10T11:05:10;32.60;75.90
22418;DHT22;11376;50.932;4.442;2023-06-10T11:07:37;33.00;74.60
22418;DHT22;11376;50.932;4.442;2023-06-10T11:10:09;33.60;71.20
22418;DHT22;11376;50.932;4.442;2023-06-10T11:15:11;34.10;65.80
22418;DHT22;11376;50.932;4.442;2023-06-10T11:17:36;35.10;63.70
22418;DHT22;11376;50.932;4.442;2023-06-10T11:20:02;35.80;59.10
22418;DHT22;11376;50.932;4.442;2023-06-10T11:22:28;37.10;55.30
22418;DHT22;11376;50.932;4.442;2023-06-10T11:24:54;39.00;50.90
22418;DHT22;11376;50.932;4.442;2023-06-10T11:27:23;38.40;49.30
22418;DHT22;11376;50.932;4.442;2023-06-10T11:30:21;39.10;48.20
22418;DHT22;11376;50.932;4.442;2023-06-10T11:32:51;39.80;45.30
22418;DHT22;11376;50.932;4.442;2023-06-10T11:35:19;40.80;42.50
22418;DHT22;11376;50.932;4.442;2023-06-10T11:37:45;42.10;39.30
22418;DHT22;11376;50.932;4.442;2023-06-10T11:40:12;43.10;37.50
22418;DHT22;11376;50.932;4.442;2023-06-10T11:42:40;44.10;35.70
22418;DHT22;11376;50.932;4.442;2023-06-10T11:45:06;44.30;34.90
22418;DHT22;11376;50.932;4.442;2023-06-10T11:47:33;44.30;34.00
22418;DHT22;11376;50.932;4.442;2023-06-10T11:49:59;43.60;34.50
22418;DHT22;11376;50.932;4.442;2023-06-10T11:52:31;45.10;32.70
22418;DHT22;11376;50.932;4.442;2023-06-10T11:55:05;45.90;30.90
22418;DHT22;11376;50.932;4.442;2023-06-10T11:57:34;44.90;30.10
22418;DHT22;11376;50.932;4.442;2023-06-10T12:00:07;44.20;30.90
22418;DHT22;11376;50.932;4.442;2023-06-10T12:02:33;44.40;30.40
22418;DHT22;11376;50.932;4.442;2023-06-10T12:05:19;44.50;30.30
22418;DHT22;11376;50.932;4.442;2023-06-10T12:07:45;44.40;30.30
22418;DHT22;11376;50.932;4.442;2023-06-10T12:10:10;46.00;29.70
22418;DHT22;11376;50.932;4.442;2023-06-10T12:12:36;46.70;28.90
22418;DHT22;11376;50.932;4.442;2023-06-10T12:15:02;46.60;28.20
22418;DHT22;11376;50.932;4.442;2023-06-10T12:19:56;47.70;28.20
22418;DHT22;11376;50.932;4.442;2023-06-10T12:22:23;48.00;26.90
22418;DHT22;11376;50.932;4.442;2023-06-10T12:25:00;48.00;26.90
22418;DHT22;11376;50.932;4.442;2023-06-10T12:27:27;49.40;25.80
22418;DHT22;11376;50.932;4.442;2023-06-10T12:29:56;49.20;26.00
22418;DHT22;11376;50.932;4.442;2023-06-10T12:32:41;48.50;25.50
22418;DHT22;11376;50.932;4.442;2023-06-10T12:35:08;49.00;25.30
22418;DHT22;11376;50.932;4.442;2023-06-10T12:37:35;49.40;25.30
22418;DHT22;11376;50.932;4.442;2023-06-10T12:40:03;48.70;24.40
22418;DHT22;11376;50.932;4.442;2023-06-10T12:42:29;47.90;24.70
22418;DHT22;11376;50.932;4.442;2023-06-10T12:44:57;48.60;25.00
22418;DHT22;11376;50.932;4.442;2023-06-10T12:47:37;49.80;24.30
22418;DHT22;11376;50.932;4.442;2023-06-10T12:50:07;48.80;23.80
22418;DHT22;11376;50.932;4.442;2023-06-10T12:52:33;47.30;25.20
22418;DHT22;11376;50.932;4.442;2023-06-10T12:54:59;46.20;25.40
22418;DHT22;11376;50.932;4.442;2023-06-10T12:57:26;46.40;24.90
22418;DHT22;11376;50.932;4.442;2023-06-10T12:59:51;47.30;25.00
22418;DHT22;11376;50.932;4.442;2023-06-10T13:02:22;49.10;23.50
22418;DHT22;11376;50.932;4.442;2023-06-10T13:04:52;48.90;23.20
22418;DHT22;11376;50.932;4.442;2023-06-10T13:07:18;47.90;24.30
22418;DHT22;11376;50.932;4.442;2023-06-10T13:09:44;47.30;23.70
22418;DHT22;11376;50.932;4.442;2023-06-10T13:12:10;47.60;23.90
22418;DHT22;11376;50.932;4.442;2023-06-10T13:14:37;47.40;23.60
22418;DHT22;11376;50.932;4.442;2023-06-10T13:17:06;47.60;24.30
22418;DHT22;11376;50.932;4.442;2023-06-10T13:19:35;48.80;23.60
22418;DHT22;11376;50.932;4.442;2023-06-10T13:22:00;47.70;24.20
22418;DHT22;11376;50.932;4.442;2023-06-10T13:24:26;48.20;23.60
22418;DHT22;11376;50.932;4.442;2023-06-10T13:26:52;49.00;23.20
22418;DHT22;11376;50.932;4.442;2023-06-10T13:29:18;49.00;23.20
22418;DHT22;11376;50.932;4.442;2023-06-10T13:31:43;49.20;23.00
22418;DHT22;11376;50.932;4.442;2023-06-10T13:34:09;48.80;23.30
22418;DHT22;11376;50.932;4.442;2023-06-10T13:36:36;49.70;23.20
22418;DHT22;11376;50.932;4.442;2023-06-10T13:39:01;49.70;23.10
22418;DHT22;11376;50.932;4.442;2023-06-10T13:41:27;50.10;22.70
22418;DHT22;11376;50.932;4.442;2023-06-10T13:43:54;49.40;23.30
22418;DHT22;11376;50.932;4.442;2023-06-10T13:46:20;48.70;23.10
22418;DHT22;11376;50.932;4.442;2023-06-10T13:48:47;49.00;23.30
22418;DHT22;11376;50.932;4.442;2023-06-10T13:51:13;48.90;23.20
22418;DHT22;11376;50.932;4.442;2023-06-10T13:53:38;49.20;23.20
22418;DHT22;11376;50.932;4.442;2023-06-10T13:56:04;49.10;23.30
22418;DHT22;11376;50.932;4.442;2023-06-10T13:58:30;48.50;23.00
22418;DHT22;11376;50.932;4.442;2023-06-10T14:00:56;48.00;23.50
22418;DHT22;11376;50.932;4.442;2023-06-10T14:03:23;48.40;23.30
22418;DHT22;11376;50.932;4.442;2023-06-10T14:05:49;48.00;23.50
22418;DHT22;11376;50.932;4.442;2023-06-10T14:08:15;47.70;24.10
22418;DHT22;11376;50.932;4.442;2023-06-10T14:10:41;48.00;23.20
22418;DHT22;11376;50.932;4.442;2023-06-10T14:13:06;46.40;24.30
22418;DHT22;11376;50.932;4.442;2023-06-10T14:15:32;46.50;24.30
22418;DHT22;11376;50.932;4.442;2023-06-10T14:17:58;47.10;24.20
22418;DHT22;11376;50.932;4.442;2023-06-10T14:20:24;47.40;23.70
22418;DHT22;11376;50.932;4.442;2023-06-10T14:22:51;47.40;23.60
22418;DHT22;11376;50.932;4.442;2023-06-10T14:25:17;48.20;23.10
22418;DHT22;11376;50.932;4.442;2023-06-10T14:27:43;47.50;23.50
22418;DHT22;11376;50.932;4.442;2023-06-10T14:30:09;47.50;23.30
22418;DHT22;11376;50.932;4.442;2023-06-10T14:32:35;47.50;23.50
22418;DHT22;11376;50.932;4.442;2023-06-10T14:35:01;48.00;23.40
22418;DHT22;11376;50.932;4.442;2023-06-10T14:37:26;48.00;23.20
22418;DHT22;11376;50.932;4.442;2023-06-10T14:39:52;48.30;23.00
22418;DHT22;11376;50.932;4.442;2023-06-10T14:42:18;48.30;23.30
22418;DHT22;11376;50.932;4.442;2023-06-10T14:44:43;48.40;23.10
22418;DHT22;11376;50.932;4.442;2023-06-10T14:47:09;47.60;23.00
22418;DHT22;11376;50.932;4.442;2023-06-10T14:49:35;46.40;23.80
22418;DHT22;11376;50.932;4.442;2023-06-10T14:52:01;47.50;23.60
22418;DHT22;11376;50.932;4.442;2023-06-10T14:54:26;48.10;23.20
22418;DHT22;11376;50.932;4.442;2023-06-10T14:56:52;47.50;23.80
22418;DHT22;11376;50.932;4.442;2023-06-10T14:59:17;47.30;24.00
22418;DHT22;11376;50.932;4.442;2023-06-10T15:01:43;47.70;23.30
22418;DHT22;11376;50.932;4.442;2023-06-10T15:04:09;47.30;23.20
22418;DHT22;11376;50.932;4.442;2023-06-10T15:06:34;47.10;23.30
22418;DHT22;11376;50.932;4.442;2023-06-10T15:09:00;46.00;24.00
22418;DHT22;11376;50.932;4.442;2023-06-10T15:11:26;46.30;24.50
22418;DHT22;11376;50.932;4.442;2023-06-10T15:13:51;45.90;25.10
22418;DHT22;11376;50.932;4.442;2023-06-10T15:16:17;46.30;24.10
22418;DHT22;11376;50.932;4.442;2023-06-10T15:18:43;46.00;24.30
22418;DHT22;11376;50.932;4.442;2023-06-10T15:21:09;46.60;24.00
22418;DHT22;11376;50.932;4.442;2023-06-10T15:23:34;46.00;23.80
22418;DHT22;11376;50.932;4.442;2023-06-10T15:26:00;45.80;24.30
22418;DHT22;11376;50.932;4.442;2023-06-10T15:28:26;46.10;23.90
22418;DHT22;11376;50.932;4.442;2023-06-10T15:30:51;45.30;24.30
22418;DHT22;11376;50.932;4.442;2023-06-10T15:33:17;45.40;24.30
22418;DHT22;11376;50.932;4.442;2023-06-10T15:35:43;44.60;24.60
22418;DHT22;11376;50.932;4.442;2023-06-10T15:38:08;45.90;24.50
22418;DHT22;11376;50.932;4.442;2023-06-10T15:40:34;47.00;23.70